Mendota, IL

12:11 AM CST on March 02, 2015 (GMT -0600)
Northbrook | Change Station
CLOSE
Current Station
Personal Weather Station
Location: Mendota, IL
Elevation: 778 ft
Nearby Weather Stations

Elev 778 ft 41.56 °N, 89.12 °W | Updated 7 seconds ago

Partly Cloudy
Partly Cloudy
12.6 °F
Feels Like 13 °F
N
0.0
Wind Variable Wind from South
Gusts 0.0 mph

Today
High -- | Low -- °F
--% Chance of Precip.
Yesterday
High -- | Low -- °F
Precip. -- in
6:29 AM 5:47 PM
Waxing Gibbous, 89% visible
Pressure 30.41 in
Visibility 10.0 miles
Clouds Clear
Windchill 13 °F
Dew Point 2 °F
Humidity 62%
Rainfall 0.00 in
Snow Depth Not available.
UV 0.0 out of 12
Pollen .50 out of 12
Air Quality Not available.
Flu Activity Not available.
METAR KVYS 020555Z AUTO 28009KT 10SM CLR M08/M11 A3041 RMK AO2 T10801115 11063 21085 410401106

More Conditions Fewer Conditions

Pressure 30.41 in
Visibility 10.0 miles
Clouds Clear
Windchill 13 °F
Dew Point 2 °F
Humidity 62%
Rainfall 0.00 in
Snow Depth Not available.
UV 0.0 out of 12
Pollen .50 out of 12
Air Quality Not available.
Flu Activity Not available.
METAR KVYS 020555Z AUTO 28009KT 10SM CLR M08/M11 A3041 RMK AO2 T10801115 11063 21085 410401106

More Conditions Fewer Conditions

10-Day Weather Forecast

Almanac

Astronomy

Mar. 02, 2015 Rise Set
Actual Time
Civil Twilight
Nautical Twilight
Astronomical Twilight
Moon
Length of Visible Light
Length of Day
Tomorrow will be .
, % of the Moon is Illuminated

Today's Extremes

State Highs State Lows

Community

WunderPhotos

Upload Photos

1,801,738 photos uploaded!

WunderBlogs® & News

Nearby

Air Quality

  Air Quality AQ Index Pollutant
Not available.

Snow Depth

Station Depth Elevation

Earthquake Activity

City Distance Mag. Time & Date
Minimum magnitude displayed is 2.5.

Coastal Water Temperatures

Place Temperature

Nearby Weather Stations